Date,TemperatureHighF,TemperatureAvgF,TemperatureLowF,DewpointHighF,DewpointAvgF,DewpointLowF,HumidityHigh,HumidityAvg,HumidityLow,PressureMaxIn,PressureMinIn,WindSpeedMaxMPH,WindSpeedAvgMPH,GustSpeedMaxMPH,PrecipitationSumIn
2014-1-1,74.8,48.5,33.4,32.8,23.7,15.6,63,44,11,30.17,30.03,16,0,19,0.04
2014-1-2,75.0,47.4,28.9,35.0,26.3,20.2,75,50,15,30.17,29.99,12,0,15,0.01
2014-1-3,70.9,46.1,32.6,35.1,27.9,20.5,75,53,20,30.06,29.88,8,0,12,0.01
2014-1-4,69.1,51.6,29.3,30.9,16.1,3.3,76,31,10,30.14,29.92,44,6,52,0.01
2014-1-5,72.0,55.0,35.4,17.6,8.9,4.0,37,17,8,30.23,30.08,26,3,33,0.00
2014-1-6,61.5,43.9,31.2,26.3,17.1,7.5,53,37,14,30.89,30.11,6,0,12,0.01
2014-1-7,64.2,41.2,0.0,30.8,21.9,15.8,68,46,19,30.14,30.03,11,0,15,0.01
2014-1-8,62.1,44.3,28.0,32.4,25.8,17.5,81,51,25,30.17,30.04,14,0,17,0.00
2014-1-9,60.1,43.9,32.4,39.4,30.9,24.2,79,61,35,30.20,30.07,14,0,17,0.06
2014-1-10,64.6,42.4,28.6,44.0,28.9,21.8,86,62,30,30.26,30.10,12,0,15,0.01
2014-1-11,56.7,43.8,32.7,41.6,33.5,23.7,80,67,50,30.20,29.97,25,2,33,0.10
2014-1-12,61.2,41.7,26.2,42.1,27.0,18.5,89,59,24,30.41,30.18,20,1,26,0.00
2014-1-13,72.9,55.1,37.6,32.4,27.2,16.7,68,38,12,30.47,30.34,27,3,38,0.00
2014-1-14,78.8,55.5,38.8,27.8,18.6,7.2,48,26,8,30.50,30.32,21,2,33,0.00
2014-1-15,81.9,56.3,36.0,24.8,15.0,7.2,46,23,8,30.38,30.19,27,2,33,0.00
2014-1-16,82.4,51.4,30.6,28.0,15.8,7.2,55,31,8,30.26,30.10,21,1,26,0.00
2014-1-17,79.5,47.4,28.6,29.1,17.4,7.2,56,36,9,30.17,30.07,10,0,16,0.00
2014-1-18,79.2,46.8,28.9,32.4,20.6,13.4,66,43,9,30.14,30.00,12,0,19,0.00
2014-1-19,75.6,44.7,29.1,34.9,22.1,12.2,76,48,10,30.14,30.01,10,0,16,0.00
2014-1-20,78.6,45.1,26.6,32.0,18.9,7.4,71,44,8,30.20,30.07,13,0,19,0.00
2014-1-21,77.2,44.4,25.5,30.9,17.5,7.2,73,41,8,30.26,30.11,14,0,17,0.00
2014-1-22,77.9,54.8,33.0,24.9,15.8,7.2,52,26,8,30.14,29.91,22,2,32,0.00
2014-1-23,74.3,63.0,54.6,21.3,13.5,7.2,21,15,8,30.09,29.90,30,6,46,0.00
2014-1-24,76.8,58.4,36.1,25.8,17.3,-10.8,53,23,9,30.23,30.08,24,2,33,0.00
2014-1-25,79.7,49.4,31.2,30.3,19.5,7.2,62,37,8,30.23,30.04,10,0,16,0.00
2014-1-26,75.2,46.9,29.7,28.4,19.6,11.6,60,39,11,30.11,29.95,10,0,16,0.00
2014-1-27,64.6,48.0,31.5,36.5,27.6,18.0,69,48,25,30.11,30.01,10,0,12,0.00
2014-1-28,65.5,55.5,47.8,37.4,34.4,26.2,61,47,26,30.20,30.08,10,0,12,0.00
2014-1-29,54.7,50.7,45.0,46.9,40.0,31.0,91,68,42,30.11,29.89,7,0,11,0.35
2014-1-30,62.6,48.4,34.2,47.6,33.4,23.1,96,60,27,29.91,29.76,22,1,26,0.00
2014-1-31,61.2,40.2,27.3,32.0,20.8,13.2,76,51,15,30.09,29.84,9,1,20,0.00
2014-2-1,62.4,40.2,26.6,28.2,17.7,8.5,72,46,13,30.09,29.95,9,1,17,0.00
2014-2-2,60.3,42.0,29.8,28.3,23.7,16.3,68,50,26,29.97,29.84,16,1,23,0.00
2014-2-3,60.1,37.8,23.4,30.9,21.4,13.7,77,55,23,30.03,29.89,115,1,25,0.00
2014-2-4,58.7,38.4,24.1,26.5,17.0,10.8,72,47,17,30.09,29.98,14,1,19,0.00
2014-2-5,57.8,39.4,21.8,30.0,22.4,13.0,72,52,32,30.14,29.99,21,1,25,0.00
2014-2-6,43.5,40.6,38.7,37.4,34.2,27.7,91,78,59,30.03,29.84,12,0,16,0.58
2014-2-7,48.6,45.9,41.5,46.3,39.8,35.5,98,79,76,29.94,29.77,39,6,52,1.84
2014-2-8,51.1,49.7,47.6,49.3,43.7,41.6,99,80,79,30.03,29.91,24,1,40,1.38
2014-2-9,54.0,51.3,47.5,51.6,45.3,41.3,99,80,77,30.03,29.91,13,0,16,1.10
2014-2-10,68.2,49.7,35.6,54.5,39.0,29.1,100,69,34,30.23,29.99,14,1,17,0.04
2014-2-11,66.6,49.5,36.0,45.0,35.9,28.2,95,63,31,30.20,30.06,13,0,17,0.00
2014-2-12,58.6,51.0,41.2,48.3,42.2,34.8,93,73,52,30.17,30.05,25,1,30,0.26
2014-2-13,53.8,51.6,50.6,51.7,45.7,44.8,97,80,77,30.17,30.00,3,0,4,0.28
2014-2-14,62.2,57.2,52.6,52.0,48.3,46.6,97,72,64,30.09,29.93,22,2,33,0.01
2014-2-15,58.3,55.6,48.9,49.0,45.8,36.7,82,70,63,29.97,29.71,29,4,39,0.31
2014-2-16,64.8,48.9,35.2,37.9,30.3,23.1,74,52,24,30.17,29.86,16,1,22,0.16
2014-2-17,64.2,45.2,30.5,38.3,30.5,24.8,88,60,28,30.11,29.98,19,1,26,0.00
2014-2-18,69.1,50.9,33.9,42.5,34.5,27.6,91,57,27,30.14,29.93,18,2,25,0.00
2014-2-19,65.1,51.7,38.2,40.0,26.5,15.5,64,41,16,30.20,29.93,22,2,33,0.00
2014-2-20,72.7,51.7,38.3,32.9,27.8,20.3,68,43,17,30.20,30.04,27,2,34,0.00
2014-2-21,71.6,53.7,36.7,35.1,30.8,24.5,75,45,19,30.11,29.92,30,3,38,0.00
2014-2-22,77.4,52.6,35.4,34.8,24.0,7.2,69,41,8,30.00,29.82,24,1,30,0.00
2014-2-23,74.3,49.5,30.7,36.0,28.3,23.3,77,50,16,30.00,29.88,16,1,23,0.00
2014-2-24,78.1,52.8,35.4,40.9,31.4,25.0,79,51,17,29.97,29.84,14,1,17,0.00
2014-2-25,78.8,53.6,34.5,42.6,32.7,26.0,80,52,17,29.94,29.78,16,1,22,0.00
2014-2-26,53.6,49.9,43.2,48.7,42.4,33.3,95,75,64,29.91,29.58,103,0,103,1.94
2014-2-27,54.5,50.3,45.3,46.8,43.8,38.5,97,78,74,29.73,29.59,28,2,46,0.85
2014-2-28,53.2,49.4,45.5,46.0,42.6,38.7,96,78,70,29.64,29.33,16,1,19,0.60
2014-3-1,62.2,52.8,46.9,46.9,43.1,36.8,97,71,49,29.79,29.50,13,1,16,0.43
2014-3-2,54.5,52.2,49.9,47.8,45.8,44.1,92,79,74,30.03,29.79,25,2,34,0.45
2014-3-3,53.8,51.0,49.3,50.5,44.4,43.1,98,78,72,30.06,29.93,26,3,33,1.96
2014-3-4,62.6,53.4,47.5,54.0,44.1,39.4,98,72,49,30.11,29.99,10,0,12,0.12
2014-3-5,57.6,53.7,49.5,54.0,47.2,43.2,97,79,72,30.06,29.79,34,2,41,0.77
2014-3-6,63.9,52.9,40.3,52.4,42.5,32.5,96,69,38,30.14,29.86,9,2,20,0.17
2014-3-7,73.4,51.7,36.0,43.1,34.4,27.5,93,58,20,30.20,30.03,21,2,32,0.00
2014-3-8,74.5,54.5,37.2,46.9,37.0,28.2,90,57,19,30.20,30.03,14,1,19,0.10
2014-3-9,58.3,53.4,50.6,53.6,47.1,45.2,95,79,70,30.17,29.98,9,0,12,0.71
2014-3-10,68.9,54.6,40.8,49.6,35.3,21.7,95,52,18,30.29,29.95,26,2,32,0.16
2014-3-11,70.9,55.1,37.6,30.2,20.8,10.8,72,31,11,30.32,30.10,40,5,51,0.00
2014-3-12,77.7,57.4,42.3,31.8,21.9,10.0,64,29,9,30.21,29.99,17,2,23,0.00
2014-3-13,81.7,54.7,33.0,38.0,28.0,14.1,80,46,8,30.06,29.86,16,1,22,0.16
2014-3-14,81.3,57.6,40.8,40.2,35.1,28.5,74,49,16,30.20,29.95,19,1,23,0.16
2014-3-15,86.5,59.6,40.1,36.5,29.7,13.9,69,41,8,30.29,30.14,19,1,23,0.00
2014-3-16,79.7,59.6,37.3,43.9,34.3,12.8,80,45,14,30.26,29.97,22,2,30,0.00
2014-3-17,67.8,57.2,41.9,34.8,22.6,11.4,64,29,12,30.14,29.62,25,4,32,0.00
2014-3-18,74.1,57.9,47.7,23.6,18.1,7.2,36,23,8,30.09,29.87,31,4,45,0.00
2014-3-19,77.7,55.3,32.5,31.6,21.9,7.6,68,34,8,30.06,29.93,8,1,12,0.00
2014-3-20,79.9,55.0,34.3,39.0,26.4,7.2,80,43,8,30.04,29.85,16,1,20,0.00
2014-3-21,81.7,59.2,41.4,31.2,23.7,11.1,63,33,8,29.94,29.78,24,2,32,0.00
2014-3-22,79.5,59.9,42.3,28.6,19.2,7.2,56,24,8,30.06,29.91,21,2,30,0.00
2014-3-23,82.0,55.7,34.5,35.1,26.7,16.6,77,41,9,30.11,29.99,13,1,16,0.00
2014-3-24,81.1,57.1,36.1,38.3,31.1,19.2,76,45,10,30.09,29.88,13,1,17,0.00
2014-3-25,59.4,49.7,43.0,44.9,38.9,27.2,86,67,46,29.94,29.71,13,1,16,0.31
2014-3-26,52.0,47.9,41.0,47.7,41.2,34.8,95,77,68,29.82,29.65,19,2,26,1.01
2014-3-27,64.2,51.0,40.6,45.9,40.2,32.3,97,69,40,30.06,29.79,20,2,32,0.20
2014-3-28,59.0,53.1,49.4,51.0,45.6,43.9,95,76,61,30.09,29.87,35,4,46,0.92
2014-3-29,59.2,53.0,46.2,53.8,44.8,32.6,98,74,56,29.97,29.86,22,2,33,0.60
2014-3-30,58.3,45.5,34.3,42.3,36.7,28.8,89,72,49,30.06,29.89,10,1,14,0.61
2014-3-31,47.5,44.3,42.1,41.8,38.1,36.1,95,79,73,30.00,29.69,27,1,44,0.48
2014-4-1,50.0,44.8,42.3,41.2,37.7,35.6,96,76,68,29.88,29.77,11,2,22,0.17
2014-4-2,68.0,48.8,32.6,40.0,34.4,26.8,91,61,30,30.03,29.83,16,1,19,0.01
2014-4-3,60.4,50.7,42.4,42.3,39.7,34.1,84,67,46,30.06,29.93,19,1,201,0.03
2014-4-4,63.7,50.6,43.7,44.3,38.7,30.1,94,66,32,30.00,29.88,19,1,23,0.03
2014-4-5,76.5,54.9,35.8,43.3,35.9,29.0,80,54,21,30.14,29.96,16,1,19,0.00
2014-4-6,83.1,60.9,40.1,46.4,40.2,33.9,86,53,20,30.20,30.03,13,1,18,0.00
2014-4-7,85.8,63.9,44.1,44.2,39.3,31.0,76,47,18,30.14,30.00,20,1,24,0.00
2014-4-8,85.9,63.1,43.7,48.3,41.9,33.9,80,52,20,30.11,29.92,12,1,17,0.00
2014-4-9,85.5,65.0,46.4,49.8,43.5,34.5,80,52,21,30.03,29.86,17,1,22,0.01
2014-4-10,87.8,65.2,46.4,50.5,42.6,31.7,90,51,17,30.00,29.79,16,1,19,0.00
2014-4-11,90.5,65.9,44.8,55.3,41.3,24.1,90,49,10,29.88,29.68,17,1,20,0.00
2014-4-12,85.5,65.4,48.6,52.0,46.8,39.0,80,55,23,29.85,29.67,19,1,23,0.00
2014-4-13,85.6,63.9,42.8,49.0,30.3,13.0,84,38,8,30.06,29.81,27,2,33,0.00
2014-4-14,86.9,64.0,41.0,40.9,32.1,14.7,72,39,9,30.03,29.91,16,1,20,0.00
2014-4-15,86.0,64.2,43.5,43.7,38.8,29.0,77,45,16,30.00,29.78,13,1,18,0.00
2014-4-16,86.0,65.7,46.0,43.2,36.4,26.3,66,38,17,29.94,29.72,20,1,25,0.00
2014-4-17,84.7,65.6,49.1,46.6,39.7,24.1,69,43,16,29.88,29.68,16,2,24,0.04
2014-4-18,86.2,65.3,51.1,42.8,32.8,14.5,65,35,8,29.88,29.72,8,2,18,0.00
2014-4-19,81.3,61.4,42.8,45.5,37.5,27.7,74,45,20,30.06,29.79,20,2,24,0.00
2014-4-20,89.1,64.5,43.7,39.6,32.0,14.9,72,39,8,30.11,29.91,21,1,25,0.00
2014-4-21,74.5,59.2,46.2,45.3,40.7,25.0,71,52,30,30.00,29.73,9,1,18,0.00
2014-4-22,72.0,57.9,42.6,39.6,27.1,14.2,67,35,11,30.03,29.76,27,3,33,0.00
2014-4-23,73.2,57.3,36.7,40.7,32.0,18.0,70,41,20,30.09,29.93,13,1,16,0.00
2014-4-24,73.9,57.7,45.1,45.3,41.9,33.6,75,57,29,30.00,29.82,17,1,23,0.00
2014-4-25,67.1,54.3,40.8,45.2,36.1,26.3,81,53,27,29.85,29.65,22,1,26,0.00
2014-4-26,67.1,51.4,34.9,42.0,34.7,25.9,90,57,25,29.91,29.75,21,2,30,0.04
2014-4-27,66.4,54.3,44.1,42.4,39.5,34.6,77,58,35,30.09,29.89,22,2,26,0.01
2014-4-28,79.3,57.5,36.6,44.6,33.1,20.3,92,49,12,30.20,30.06,9,1,14,0.00
2014-4-29,93.0,68.2,44.4,40.4,32.3,20.6,72,35,8,30.23,30.03,32,2,38,0.00
2014-4-30,95.2,73.4,52.9,39.4,29.7,14.1,54,24,8,30.12,29.93,9,1,18,0.00
2014-5-1,94.3,69.2,45.3,44.5,36.0,20.6,70,38,8,30.06,29.95,16,1,20,0.00
2014-5-2,90.9,71.0,48.6,46.4,39.9,26.2,72,38,14,30.03,29.81,16,1,19,0.00
2014-5-3,82.0,69.0,54.1,46.3,40.4,29.5,57,37,20,29.91,29.74,22,3,29,0.00
2014-5-4,75.2,63.9,53.6,46.3,39.4,26.0,62,42,26,29.97,29.80,21,2,33,0.00
2014-5-5,75.9,59.8,47.7,43.1,36.2,27.4,63,43,20,29.94,29.83,20,2,32,0.01
2014-5-6,80.2,60.6,39.2,38.3,30.6,20.5,76,39,12,29.91,29.73,26,2,32,0.00
2014-5-7,81.0,64.3,43.7,35.2,30.6,21.0,60,32,12,29.85,29.75,11,2,18,0.00
2014-5-8,68.5,60.9,53.8,49.4,41.1,29.0,77,49,29,29.94,29.84,11,2,18,0.03
2014-5-9,77.7,62.5,45.3,51.1,36.6,23.6,93,44,18,30.06,29.90,24,3,32,0.00
2014-5-10,77.0,60.4,41.5,38.9,27.7,10.2,64,33,9,30.11,29.96,22,2,26,0.00
2014-5-11,84.9,63.1,42.1,34.4,28.4,14.5,61,32,9,30.17,29.93,25,1,33,0.00
2014-5-12,91.8,69.2,46.9,36.6,29.6,17.8,56,29,8,30.11,29.96,16,1,25,0.00
2014-5-13,98.8,72.6,48.0,44.4,33.6,20.6,64,32,8,30.14,29.99,20,1,24,0.00
2014-5-14,103.0,75.3,48.2,44.6,36.5,26.0,66,33,8,30.11,29.92,14,1,19,0.00
2014-5-15,95.9,73.9,51.5,48.0,42.3,32.0,64,37,12,30.06,29.91,14,1,23,0.00
2014-5-16,97.5,73.3,52.5,49.1,37.3,20.6,68,35,8,30.00,29.81,18,1,23,0.00
2014-5-17,93.4,72.0,50.1,44.4,38.6,26.9,62,33,11,29.91,29.73,21,2,30,0.00
2014-5-18,82.9,69.5,54.7,42.4,35.7,26.5,53,31,14,29.88,29.76,25,3,40,0.00
2014-5-19,80.6,62.6,47.6,44.7,37.5,27.9,70,43,16,29.88,29.73,20,1,24,0.03
2014-5-20,87.6,67.5,47.3,48.8,43.0,35.0,76,46,18,29.91,29.76,24,2,41,0.00
2014-5-21,94.5,71.9,47.1,47.3,38.9,21.8,81,38,9,29.91,29.72,19,1,25,0.00
2014-5-22,96.4,74.7,52.3,47.9,38.0,26.2,64,33,10,29.91,29.77,9,1,16,0.00
2014-5-23,99.0,76.4,54.5,47.9,43.0,28.8,60,35,9,29.94,29.77,19,1,23,0.16
2014-5-24,102.0,81.6,62.6,47.1,42.2,28.6,49,27,10,29.94,29.75,18,2,26,0.00
2014-5-25,104.4,82.8,61.2,47.4,35.8,13.9,44,22,8,29.91,29.73,21,3,32,0.08
2014-5-26,99.1,79.6,57.2,43.8,32.9,20.6,46,21,8,29.94,29.79,17,2,29,0.00
2014-5-27,94.8,72.3,51.9,42.2,26.5,7.2,54,23,8,29.94,29.82,23,2,32,0.00
2014-5-28,85.8,68.4,51.0,27.6,21.3,12.8,30,18,8,30.06,29.91,23,3,29,0.00
2014-5-29,93.2,72.0,54.9,34.3,26.1,13.2,34,20,8,30.00,29.73,24,4,38,0.00
2014-5-30,93.4,69.3,46.4,37.0,29.0,14.1,56,28,8,29.85,29.75,22,1,32,0.00
2014-5-31,97.7,70.9,44.4,37.5,31.3,22.5,62,29,9,29.91,29.75,22,1,26,0.00
2014-6-1,100.9,75.0,48.7,43.1,34.8,20.6,61,29,8,29.85,29.66,10,1,17,0.00
2014-6-2,99.1,74.8,51.8,44.7,37.0,20.6,63,31,8,29.76,29.65,21,1,26,0.00
2014-6-3,95.9,75.1,52.7,42.8,34.7,20.9,54,27,8,29.88,29.73,17,1,26,0.00
2014-6-4,106.0,81.6,50.5,43.2,33.6,19.3,61,23,8,29.85,29.67,22,3,30,0.00
2014-6-5,111.0,84.3,56.8,51.3,37.3,27.0,48,23,8,29.79,29.59,19,2,24,0.00
2014-6-6,108.7,84.1,59.5,47.5,39.0,25.9,52,25,8,29.76,29.60,19,2,27,0.00
2014-6-7,108.9,87.1,61.2,41.3,35.3,21.0,45,19,8,29.79,29.65,25,4,39,0.00
2014-6-8,107.4,88.5,70.2,44.9,38.1,27.2,35,18,8,29.88,29.65,21,5,32,0.00
2014-6-9,110.8,91.2,71.6,47.4,41.3,27.8,33,19,8,29.76,29.57,30,4,36,0.00
2014-6-10,108.0,89.5,73.8,41.2,31.0,17.8,23,13,8,29.76,29.60,27,6,33,0.00
2014-6-11,100.2,83.4,72.3,51.7,43.5,19.2,44,26,10,29.72,29.64,16,1,19,0.00
2014-6-12,76.3,71.7,66.0,51.4,47.3,44.1,49,42,37,29.75,29.72,9,1,12,0.00
2014-7-30,88.0,76.3,66.4,50.9,46.7,37.1,44,36,27,29.89,29.29,1,0,3,0.00
2014-7-31,113.4,89.9,67.9,54.3,43.6,21.8,51,25,8,29.87,29.15,19,1,23,0.00
2014-8-1,114.1,88.0,60.1,48.3,41.5,27.2,48,24,8,29.83,29.12,21,1,25,0.00
2014-8-2,111.2,86.4,63.5,49.6,40.1,23.6,49,24,8,29.83,29.15,16,1,19,0.00
2014-8-3,104.5,81.9,59.9,53.9,41.6,27.6,51,28,8,29.85,29.18,16,1,24,0.00
2014-8-4,91.6,78.3,63.5,54.1,49.7,39.5,60,39,19,29.89,29.26,14,0,19,0.00
2014-8-5,79.3,72.5,65.4,61.2,58.2,50.7,83,61,43,30.01,29.35,14,0,18,0.11
2014-8-6,101.1,80.5,64.4,62.9,58.2,43.3,92,52,23,29.99,29.26,14,1,19,0.00
2014-8-7,107.8,85.7,62.6,60.4,51.8,33.8,79,39,8,29.88,29.12,13,1,16,0.00
2014-8-8,105.1,85.6,66.6,59.3,53.7,36.8,67,38,10,29.83,29.12,16,1,20,0.00
2014-8-9,106.0,84.3,62.9,55.9,45.0,27.6,64,31,8,29.84,29.18,20,1,28,0.00
2014-8-10,108.0,82.4,60.6,50.5,44.2,32.6,58,31,8,29.89,29.23,16,1,25,0.00
2014-8-11,106.7,83.2,62.8,54.7,45.5,32.7,60,31,9,29.85,29.18,19,1,24,0.00
2014-8-12,92.3,77.0,61.3,47.6,43.5,33.8,55,33,16,29.87,29.21,21,1,25,0.00
2014-8-13,93.0,76.3,60.1,51.9,46.1,33.8,54,36,20,29.86,29.23,21,1,26,0.00
2014-8-14,99.7,79.2,60.6,52.2,45.1,20.6,64,35,8,29.88,29.18,21,1,25,0.00
2014-8-15,103.3,79.3,58.3,48.2,41.5,27.2,60,31,8,29.93,29.23,20,1,24,0.00
2014-8-16,106.3,80.6,57.4,50.0,39.4,20.6,60,29,8,29.96,29.26,20,1,26,0.00
2014-8-17,106.5,80.0,55.6,45.1,36.4,20.6,57,26,8,29.94,29.18,20,1,24,0.00
2014-8-18,105.4,79.4,55.1,41.9,35.2,21.8,53,25,8,29.81,29.06,12,1,18,0.00
2014-8-19,103.1,79.1,57.8,51.4,42.7,34.9,53,31,11,29.77,29.03,8,1,18,0.00
2014-8-20,95.7,78.0,60.1,55.3,50.5,38.6,61,41,18,29.84,29.15,16,1,24,0.00
2014-8-21,100.0,79.2,57.8,53.7,48.7,37.6,69,39,16,29.87,29.18,21,1,30,0.00
2014-8-22,98.8,77.7,58.1,54.3,48.4,36.4,68,40,16,29.84,29.15,17,1,24,0.00
2014-8-23,104.7,80.4,58.8,48.0,38.4,20.6,61,28,8,29.87,29.12,20,2,24,0.00
2014-8-24,101.7,78.5,54.9,46.5,38.9,27.2,58,30,8,29.79,29.03,25,1,30,0.00
2014-8-25,95.7,79.0,63.9,51.9,45.7,31.6,53,33,15,29.84,29.15,14,1,26,0.00
2014-8-26,106.7,79.5,55.2,55.4,43.7,27.2,64,35,8,29.93,29.18,16,1,19,0.00
2014-8-27,104.5,80.8,61.7,55.0,48.6,36.7,65,37,10,30.00,29.26,13,1,22,0.00
2014-8-28,106.2,82.7,61.0,53.4,46.6,34.2,65,34,9,29.99,29.21,16,1,19,0.00
2014-8-29,87.6,68.5,62.6,51.6,46.0,31.7,59,46,20,29.85,29.18,10,0,12,0.00
2014-8-30,102.7,79.8,56.8,47.2,40.5,27.2,61,30,8,29.83,29.12,25,1,32,0.00
2014-8-31,104.4,82.0,62.8,47.0,39.4,27.2,47,25,8,29.85,29.15,16,1,24,0.00
2014-9-1,108.7,84.2,66.2,40.3,36.1,20.7,35,20,8,29.82,29.06,25,2,34,0.00
2014-9-2,103.8,80.5,56.8,46.8,41.3,28.9,55,29,11,29.75,29.00,14,1,22,0.00
2014-9-3,105.1,81.3,56.3,46.1,36.2,14.2,62,26,8,29.77,29.03,21,3,34,0.00
2014-9-4,103.2,82.4,60.1,38.4,28.2,13.9,21,14,8,29.70,29.03,17,5,29,0.00
2014-9-5,105.2,76.2,51.2,40.1,29.8,18.7,34,20,11,29.82,29.70,14,1,23,0.00
2014-9-6,100.5,74.7,54.2,42.7,33.6,21.4,49,25,11,29.91,29.79,12,1,23,0.00
2014-9-7,100.5,73.4,51.5,38.6,33.2,25.3,50,26,11,29.85,29.70,17,2,29,0.00
2014-9-8,98.9,72.9,51.9,41.7,35.4,29.9,57,30,12,29.88,29.70,16,1,24,0.00
2014-9-9,98.6,71.3,49.2,43.9,35.1,26.3,68,32,12,29.96,29.82,13,1,19,0.00
2014-9-10,107.5,79.1,53.0,40.2,33.6,25.1,50,23,10,29.93,29.76,26,3,32,0.00
2014-9-11,104.4,76.3,52.8,39.5,33.4,24.9,49,24,11,29.88,29.76,14,1,19,0.00
2014-9-12,104.3,75.9,53.1,42.3,35.1,26.2,53,27,11,29.88,29.73,14,1,17,0.00
2014-9-13,104.4,76.3,56.2,43.4,36.3,28.9,50,27,11,29.82,29.70,12,1,19,0.00
2014-9-14,105.0,77.6,56.2,43.3,37.6,30.5,54,28,11,29.82,29.63,14,1,26,0.12
2014-9-15,99.8,77.2,56.9,45.9,38.5,31.5,58,29,12,29.77,29.68,22,1,26,0.00
2014-9-16,93.1,71.3,56.0,40.1,33.2,22.1,48,27,13,29.86,29.71,16,1,19,0.08
2014-9-17,93.9,73.7,54.2,41.4,34.5,26.7,48,26,13,29.71,29.56,27,3,33,0.00
2014-9-18,88.6,72.1,59.2,53.5,47.2,40.7,62,43,21,29.83,29.65,22,4,32,0.00
2014-9-19,102.3,75.6,54.2,55.9,43.3,29.7,81,41,11,29.83,29.65,16,4,24,0.00
2014-9-20,101.1,74.4,56.2,54.0,45.3,41.0,75,41,14,29.86,29.71,22,1,26,0.00
2014-9-21,91.6,73.9,62.6,54.7,47.6,41.2,68,43,20,29.89,29.80,14,1,20,0.00
2014-9-22,93.4,71.5,56.0,58.2,46.1,39.4,83,46,19,29.95,29.80,10,2,12,0.00
2014-9-23,90.4,69.8,55.3,54.2,41.7,31.0,80,42,14,29.92,29.77,19,1,23,0.08
2014-9-24,77.9,66.4,58.1,54.9,48.3,38.4,84,54,36,29.86,29.71,16,2,24,0.28
2014-9-25,71.2,60.6,55.8,57.1,52.4,46.9,95,75,46,29.95,29.76,12,1,15,2.27
2014-9-26,81.0,63.4,50.0,57.9,46.2,33.8,96,59,20,29.95,29.79,10,0,17,0.24
2014-9-27,84.2,66.8,50.7,49.3,43.1,31.6,85,48,18,29.86,29.71,20,1,26,0.00
2014-9-28,73.8,63.1,53.7,49.4,46.3,41.1,83,56,36,29.89,29.74,16,1,19,0.00
2014-9-29,84.1,63.9,49.4,58.1,47.6,42.0,94,62,24,29.95,29.83,13,1,20,0.00
2014-9-30,85.6,66.1,52.1,60.2,39.7,24.5,93,48,15,29.92,29.80,22,4,26,0.00
2014-10-1,85.9,69.1,60.1,33.0,29.7,26.2,31,24,15,29.98,29.86,22,5,33,0.00
2014-10-2,94.1,71.2,53.5,37.3,30.4,24.2,54,24,13,30.01,29.92,16,1,19,0.00
2014-10-3,99.6,67.8,48.1,52.8,41.2,30.3,79,48,12,30.06,29.94,13,0,17,0.00
2014-10-4,100.4,68.7,48.0,58.0,48.6,33.7,86,57,11,30.74,29.83,14,1,15,0.00
2014-10-5,104.4,69.5,47.5,55.6,47.9,32.8,87,55,11,29.92,29.77,17,1,17,0.00
2014-10-6,97.3,67.6,47.5,58.0,48.0,31.3,85,56,12,29.89,29.74,11,2,15,0.00
2014-10-7,96.8,68.0,48.2,56.0,46.5,25.2,87,53,12,29.86,29.71,14,2,19,0.00
2014-10-8,95.0,67.0,45.8,51.1,43.4,24.3,82,49,13,29.86,29.71,18,2,23,0.00
2014-10-9,93.4,66.8,49.4,52.5,46.0,31.6,78,52,13,29.89,29.77,12,2,17,0.00
2014-10-10,94.5,67.7,46.2,54.7,47.6,33.6,87,54,18,29.98,29.83,10,1,12,0.00
2014-10-11,93.1,69.0,49.1,55.2,47.2,26.9,82,51,18,30.02,29.86,22,2,26,0.01
2014-10-12,87.3,68.0,51.2,42.4,37.8,21.4,61,35,17,30.08,29.89,24,5,34,0.00
2014-10-13,87.9,61.0,44.4,48.1,40.7,28.2,74,52,15,29.95,29.77,12,1,15,0.00
2014-10-14,66.7,59.1,50.3,51.8,46.4,35.0,82,63,35,29.82,29.65,26,3,32,0.07
2014-10-15,73.8,59.8,49.4,54.1,48.9,33.1,93,70,27,29.95,29.65,26,5,38,0.17
2014-10-16,74.5,58.8,48.5,52.1,48.1,34.0,90,70,34,29.98,29.83,19,1,23,0.00
2014-10-17,67.8,58.0,49.1,50.6,48.0,38.3,90,71,35,29.95,29.84,12,1,15,0.00
2014-10-18,81.8,63.2,50.3,54.3,50.2,36.4,86,66,32,29.95,29.74,14,1,17,0.00
2014-10-19,80.2,59.5,46.4,56.4,49.7,39.5,90,73,46,29.86,29.74,14,1,17,0.00
2014-10-20,65.2,54.9,46.0,57.7,50.5,37.5,92,85,74,29.93,29.73,30,2,30,0.31
2014-10-21,66.0,51.3,42.4,48.9,43.1,34.7,90,75,38,30.06,29.92,10,1,12,0.01
2014-10-22,64.4,53.1,43.7,50.6,46.2,37.1,92,79,55,30.01,29.92,9,0,9,0.04
2014-10-23,56.7,53.9,52.1,54.9,50.4,16.4,95,88,22,30.01,29.92,9,0,11,0.65
2014-10-24,74.0,58.4,51.6,55.9,51.2,42.1,96,79,34,29.98,29.74,9,1,11,0.30
2014-10-25,64.0,56.0,50.9,53.7,49.9,36.1,90,80,51,30.01,29.67,56,8,67,1.11
2014-10-26,67.3,51.1,38.6,47.6,41.4,31.2,90,71,44,30.15,30.00,16,1,19,0.00
2014-10-27,71.2,54.1,42.2,43.3,39.9,31.3,90,62,24,30.01,29.92,14,2,17,0.00
2014-10-28,75.2,53.7,38.8,49.6,43.3,32.0,90,71,24,30.06,29.95,12,1,15,0.44
2014-10-29,79.9,58.6,45.5,56.1,49.1,38.5,90,74,29,30.09,29.92,9,1,11,0.00
2014-10-30,74.7,56.7,46.0,56.3,49.4,43.0,92,78,40,29.95,29.74,9,1,11,0.44
2014-10-31,56.0,52.0,47.3,52.5,48.3,44.2,92,87,80,29.80,29.61,12,1,15,0.52
2014-11-1,61.9,48.5,40.6,49.4,43.7,9.5,96,84,21,29.99,29.58,6,1,8,0.01
2014-11-2,66.0,47.9,34.9,46.3,38.0,29.8,90,72,34,30.13,29.98,14,2,17,0.00
2014-11-3,71.8,51.0,38.6,45.3,39.5,30.7,90,69,34,30.21,29.56,11,1,11,0.00
2014-11-4,71.4,52.0,-1.0,48.1,43.0,0.0,90,72,2,30.25,29.62,8,1,9,0.00
2014-11-5,82.4,54.4,-1.0,54.8,45.4,0.0,90,71,2,30.20,29.41,10,1,13,0.00
2014-11-6,74.5,55.4,43.5,53.2,46.3,30.9,90,74,25,30.15,29.53,12,1,15,0.00
2014-11-7,79.1,56.4,41.5,53.3,45.6,28.6,90,72,25,30.15,29.47,10,1,12,0.00
2014-11-8,77.6,56.5,42.2,54.0,45.6,28.9,90,72,23,30.11,29.38,8,1,12,0.00
2014-11-9,76.8,53.9,40.8,54.5,45.7,28.9,90,77,24,29.96,29.21,9,0,9,0.00
2014-11-10,74.7,51.7,38.5,47.4,38.6,24.5,90,67,22,29.83,29.15,20,3,24,0.00
2014-11-11,76.5,50.0,34.0,48.2,39.1,17.5,90,71,17,29.91,29.21,11,1,11,0.00
2014-11-12,75.1,54.6,49.4,49.7,46.0,31.0,90,75,23,29.95,29.32,9,1,9,0.07
2014-11-13,73.8,53.0,49.4,50.5,47.2,31.4,90,83,25,29.99,29.35,9,2,12,0.28
2014-11-14,70.8,53.4,43.1,53.2,47.4,32.6,90,81,26,30.01,29.38,14,2,16,0.00
2014-11-15,73.6,50.9,41.9,50.3,42.1,28.9,90,74,26,30.23,29.44,17,2,17,0.00
2014-11-16,68.5,46.5,28.6,34.2,23.1,14.6,82,44,22,30.23,29.59,22,4,22,0.04
2014-11-17,72.9,43.3,24.4,34.7,24.6,15.4,87,57,15,30.25,29.65,12,1,17,0.00
2014-11-18,72.0,47.4,27.5,40.9,33.7,14.4,90,66,14,30.19,30.01,7,0,9,0.00
2014-11-19,72.7,46.7,40.1,45.2,40.8,20.2,90,83,16,30.13,29.93,9,0,12,0.71
2014-11-20,73.3,48.1,44.9,47.0,44.2,28.5,90,87,21,30.13,29.95,4,0,4,0.37
2014-11-21,73.1,49.9,45.1,47.2,43.2,28.4,90,82,21,30.07,29.93,8,1,11,0.94
2014-11-22,73.8,49.3,36.3,52.1,43.8,29.5,90,83,24,30.28,29.85,24,5,28,1.10
2014-11-23,72.7,43.0,32.5,44.0,34.4,18.5,90,77,13,30.31,30.20,7,1,11,0.00
2014-11-24,73.8,44.4,31.6,41.1,34.1,16.8,90,72,15,30.40,30.25,11,1,11,0.00
2014-11-25,74.5,44.3,32.0,44.2,36.3,15.4,90,77,13,30.45,30.28,9,1,11,0.00
2014-11-26,73.6,46.0,34.0,47.5,39.1,15.0,90,79,14,30.34,30.15,10,0,12,0.00
2014-11-27,74.7,46.8,38.6,48.7,40.4,19.2,90,81,16,30.22,29.97,6,0,6,0.00
2014-11-28,74.9,47.9,39.0,46.6,38.3,15.0,90,78,13,30.66,29.75,6,0,6,0.24
2014-11-29,97.1,57.6,48.7,55.9,39.7,20.2,90,63,16,29.86,29.75,11,1,11,0.73
2014-11-30,73.1,50.1,47.6,48.6,45.7,30.0,90,87,23,30.07,29.73,9,1,9,0.47
2014-12-1,73.8,51.3,43.5,49.1,43.7,30.3,90,81,24,30.16,30.00,4,0,4,0.04
2014-12-2,71.3,49.4,46.4,48.6,46.1,30.0,90,89,24,30.01,29.71,9,0,9,0.48
2014-12-3,72.6,50.6,48.7,48.6,46.7,30.1,90,88,25,29.83,29.62,9,1,11,1.31
2014-12-4,70.4,53.0,50.2,53.0,48.8,9.7,90,87,19,30.01,29.82,7,0,8,0.41
2014-12-5,72.6,54.8,51.8,53.1,50.0,35.4,90,86,30,30.01,29.29,30,5,30,0.55
2014-12-6,73.3,53.0,42.2,52.5,47.4,33.3,90,83,31,30.22,29.95,24,2,24,0.42
2014-12-7,70.4,51.2,42.1,51.4,46.1,30.3,90,84,29,30.22,30.10,8,0,8,0.42
2014-12-8,71.1,53.0,51.1,49.5,47.9,36.3,90,84,30,30.17,30.10,9,1,9,0.51
2014-12-9,70.4,52.2,51.4,53.0,49.2,35.8,90,85,29,30.19,27.86,8,1,8,0.24
2014-12-10,53.4,50.1,49.1,49.5,47.6,35.5,90,87,31,30.05,29.60,30,4,30,1.55
2014-12-11,53.2,48.3,45.7,49.5,46.1,33.0,90,85,27,29.66,29.39,46,13,46,4.43
2014-12-12,46.4,43.1,44.6,43.3,41.7,31.1,89,86,26,30.05,29.61,12,3,17,0.24
2014-12-13,56.5,41.8,34.3,45.4,38.7,29.7,90,82,24,30.19,30.04,6,1,6,0.01
2014-12-14,47.8,38.6,34.0,41.4,36.4,25.6,90,80,21,30.16,29.97,8,0,8,0.24
2014-12-15,43.5,41.0,39.5,39.9,38.6,26.7,90,88,24,30.02,29.89,14,2,17,1.26
2014-12-16,46.9,42.9,39.7,43.9,40.3,22.4,90,88,21,29.93,29.77,15,1,15,0.72
2014-12-17,50.0,45.2,45.1,46.6,43.0,29.1,90,87,24,30.08,29.80,17,4,23,1.24
2014-12-18,50.0,47.8,44.8,49.7,47.2,29.2,99,97,25,30.16,30.05,12,1,16,1.01
2014-12-19,51.6,46.7,48.7,50.3,48.4,29.5,99,94,24,30.11,29.99,22,6,30,2.08
2014-12-20,51.8,48.5,49.6,51.5,49.7,29.5,99,96,25,30.19,30.03,17,4,17,1.89
2014-12-21,54.0,51.0,51.4,53.2,51.8,33.1,99,97,30,30.28,30.15,12,1,12,0.10
2014-12-22,68.9,53.6,46.4,58.2,52.0,34.6,99,89,29,30.28,30.16,14,1,17,0.42
2014-12-23,73.6,53.2,44.4,54.4,48.5,31.6,99,83,26,30.22,30.07,14,1,17,0.00
2014-12-24,59.2,46.7,34.3,56.1,43.4,29.5,99,83,24,30.14,29.76,34,4,37,0.14
2014-12-25,58.3,40.1,29.7,40.4,32.2,15.2,99,74,14,30.16,30.03,18,2,18,0.00
2014-12-26,57.9,41.7,28.6,36.1,31.6,21.6,94,70,15,30.27,30.11,18,3,18,0.00
2014-12-27,54.0,40.7,28.8,35.8,30.5,26.0,90,69,40,30.35,30.22,11,1,11,0.00
2014-12-28,57.4,40.3,27.7,39.7,33.3,25.4,99,78,50,30.34,30.18,9,1,9,0.00
2014-12-29,54.5,36.9,26.1,40.5,32.0,23.8,99,83,56,30.20,30.06,15,1,15,0.03
2014-12-30,52.2,42.6,37.9,30.1,18.4,12.2,70,38,27,30.42,30.17,30,9,30,0.00
2014-12-31,57.2,44.5,28.4,23.5,15.6,8.1,57,31,25,30.38,30.14,24,8,24,0.00
2015-1-1,63.3,44.9,27.5,31.4,22.7,14.2,87,46,24,30.17,30.04,22,4,22,0.00
2015-1-2,57.9,35.7,23.9,36.8,27.4,21.2,94,75,36,30.18,30.06,11,1,11,0.00